sensor_id;sensor_type;location;lat;lon;timestamp;pressure;altitude;pressure_sealevel;temperature;humidity
77639;BME280;66802;52.574;14.398;2023-08-08T03:00:38;100885.44;;;12.99;68.71
77639;BME280;66802;52.574;14.398;2023-08-08T03:03:13;100895.63;;;12.97;68.86
77639;BME280;66802;52.574;14.398;2023-08-08T03:05:39;100882.25;;;12.95;68.96
77639;BME280;66802;52.574;14.398;2023-08-08T03:08:05;100892.06;;;12.96;68.96
77639;BME280;66802;52.574;14.398;2023-08-08T03:10:34;100887.66;;;12.95;68.48
77639;BME280;66802;52.574;14.398;2023-08-08T03:12:59;100897.13;;;12.99;68.78
77639;BME280;66802;52.574;14.398;2023-08-08T03:15:25;100886.28;;;12.99;68.28
77639;BME280;66802;52.574;14.398;2023-08-08T03:17:50;100889.69;;;13.01;68.25
77639;BME280;66802;52.574;14.398;2023-08-08T03:20:16;100891.56;;;13.01;68.10
77639;BME280;66802;52.574;14.398;2023-08-08T03:22:42;100893.94;;;13.04;68.16
77639;BME280;66802;52.574;14.398;2023-08-08T03:25:07;100900.03;;;13.06;68.25
77639;BME280;66802;52.574;14.398;2023-08-08T03:27:33;100889.38;;;13.04;68.75
77639;BME280;66802;52.574;14.398;2023-08-08T03:30:05;100898.34;;;13.05;68.49
77639;BME280;66802;52.574;14.398;2023-08-08T03:32:31;100894.94;;;13.03;68.79
77639;BME280;66802;52.574;14.398;2023-08-08T03:34:56;100886.66;;;13.04;68.58
77639;BME280;66802;52.574;14.398;2023-08-08T03:37:48;100891.06;;;13.05;68.65
77639;BME280;66802;52.574;14.398;2023-08-08T03:40:29;100903.25;;;13.01;68.67
77639;BME280;66802;52.574;14.398;2023-08-08T03:42:55;100895.44;;;12.98;68.71
77639;BME280;66802;52.574;14.398;2023-08-08T03:45:20;100904.78;;;12.96;69.06
77639;BME280;66802;52.574;14.398;2023-08-08T03:48:17;100899.19;;;12.97;69.41
77639;BME280;66802;52.574;14.398;2023-08-08T03:50:49;100899.50;;;12.94;69.50
77639;BME280;66802;52.574;14.398;2023-08-08T03:53:14;100899.66;;;12.93;69.54
77639;BME280;66802;52.574;14.398;2023-08-08T03:55:40;100896.63;;;12.96;69.44
77639;BME280;66802;52.574;14.398;2023-08-08T03:58:05;100908.97;;;12.90;69.84
77639;BME280;66802;52.574;14.398;2023-08-08T04:00:31;100912.34;;;12.84;69.78
77639;BME280;66802;52.574;14.398;2023-08-08T04:02:57;100913.84;;;12.78;70.33
77639;BME280;66802;52.574;14.398;2023-08-08T04:05:23;100917.91;;;12.74;70.56
77639;BME280;66802;52.574;14.398;2023-08-08T04:07:49;100924.66;;;12.70;70.99
77639;BME280;66802;52.574;14.398;2023-08-08T04:10:14;100927.69;;;12.67;71.29
77639;BME280;66802;52.574;14.398;2023-08-08T04:12:40;100919.91;;;12.64;71.02
77639;BME280;66802;52.574;14.398;2023-08-08T04:15:06;100919.06;;;12.64;71.37
77639;BME280;66802;52.574;14.398;2023-08-08T04:17:32;100916.66;;;12.61;71.42
77639;BME280;66802;52.574;14.398;2023-08-08T04:19:57;100919.91;;;12.64;71.88
77639;BME280;66802;52.574;14.398;2023-08-08T04:22:23;100904.13;;;12.60;71.65
77639;BME280;66802;52.574;14.398;2023-08-08T04:24:49;100906.84;;;12.60;71.89
77639;BME280;66802;52.574;14.398;2023-08-08T04:27:17;100906.47;;;12.55;72.29
77639;BME280;66802;52.574;14.398;2023-08-08T04:29:43;100916.28;;;12.56;72.51
77639;BME280;66802;52.574;14.398;2023-08-08T04:32:09;100916.81;;;12.59;72.84
77639;BME280;66802;52.574;14.398;2023-08-08T04:34:34;100911.22;;;12.53;72.30
77639;BME280;66802;52.574;14.398;2023-08-08T04:37:00;100915.63;;;12.54;72.89
77639;BME280;66802;52.574;14.398;2023-08-08T04:39:25;100911.38;;;12.51;73.05
77639;BME280;66802;52.574;14.398;2023-08-08T04:41:51;100926.63;;;12.52;73.26
77639;BME280;66802;52.574;14.398;2023-08-08T04:44:36;100918.69;;;12.59;73.80
77639;BME280;66802;52.574;14.398;2023-08-08T04:47:13;100914.31;;;12.66;73.42
77639;BME280;66802;52.574;14.398;2023-08-08T04:49:39;100914.31;;;12.66;73.56
77639;BME280;66802;52.574;14.398;2023-08-08T04:52:05;100916.06;;;12.75;73.78
77639;BME280;66802;52.574;14.398;2023-08-08T04:54:30;100913.16;;;12.76;73.70
77639;BME280;66802;52.574;14.398;2023-08-08T04:56:56;100917.94;;;12.83;73.93
77639;BME280;66802;52.574;14.398;2023-08-08T04:59:21;100904.22;;;12.84;73.68
77639;BME280;66802;52.574;14.398;2023-08-08T05:01:47;100914.56;;;12.89;73.31
77639;BME280;66802;52.574;14.398;2023-08-08T05:04:12;100916.09;;;12.91;73.49
77639;BME280;66802;52.574;14.398;2023-08-08T05:06:38;100911.19;;;12.95;73.92
77639;BME280;66802;52.574;14.398;2023-08-08T05:09:03;100916.09;;;12.99;73.37
77639;BME280;66802;52.574;14.398;2023-08-08T05:11:29;100914.59;;;13.05;73.68
77639;BME280;66802;52.574;14.398;2023-08-08T05:13:54;100914.94;;;13.10;73.21
77639;BME280;66802;52.574;14.398;2023-08-08T05:16:20;100924.31;;;13.15;73.90
77639;BME280;66802;52.574;14.398;2023-08-08T05:18:45;100920.44;;;13.18;73.38
77639;BME280;66802;52.574;14.398;2023-08-08T05:21:11;100920.44;;;13.18;73.26
77639;BME280;66802;52.574;14.398;2023-08-08T05:23:37;100912.47;;;13.17;73.58
77639;BME280;66802;52.574;14.398;2023-08-08T05:26:03;100917.38;;;13.21;73.76
77639;BME280;66802;52.574;14.398;2023-08-08T05:28:29;100924.84;;;13.27;74.12
77639;BME280;66802;52.574;14.398;2023-08-08T05:30:54;100928.78;;;13.41;73.13
77639;BME280;66802;52.574;14.398;2023-08-08T05:33:20;100924.19;;;13.49;73.40
77639;BME280;66802;52.574;14.398;2023-08-08T05:35:45;100928.59;;;13.59;72.94
77639;BME280;66802;52.574;14.398;2023-08-08T05:38:11;100919.28;;;13.61;72.74
77639;BME280;66802;52.574;14.398;2023-08-08T05:40:36;100922.66;;;13.63;72.33
77639;BME280;66802;52.574;14.398;2023-08-08T05:43:03;100925.03;;;13.66;72.49
77639;BME280;66802;52.574;14.398;2023-08-08T05:45:28;100929.44;;;13.75;72.28
77639;BME280;66802;52.574;14.398;2023-08-08T05:47:54;100922.97;;;13.84;72.22
77639;BME280;66802;52.574;14.398;2023-08-08T05:50:20;100929.75;;;13.97;71.58
77639;BME280;66802;52.574;14.398;2023-08-08T05:52:46;100928.53;;;14.07;71.75
77639;BME280;66802;52.574;14.398;2023-08-08T05:55:11;100931.59;;;14.20;71.46
77639;BME280;66802;52.574;14.398;2023-08-08T05:57:46;100931.91;;;14.34;70.76
77639;BME280;66802;52.574;14.398;2023-08-08T06:00:12;100936.31;;;14.43;71.14
77639;BME280;66802;52.574;14.398;2023-08-08T06:02:38;100940.72;;;14.44;69.97
77639;BME280;66802;52.574;14.398;2023-08-08T06:05:04;100930.69;;;14.44;70.40
77639;BME280;66802;52.574;14.398;2023-08-08T06:07:30;100939.69;;;14.45;70.24
77639;BME280;66802;52.574;14.398;2023-08-08T06:09:55;100942.72;;;14.50;69.99
77639;BME280;66802;52.574;14.398;2023-08-08T06:12:21;100940.84;;;14.50;69.55
77639;BME280;66802;52.574;14.398;2023-08-08T06:14:47;100937.47;;;14.56;69.99
77639;BME280;66802;52.574;14.398;2023-08-08T06:17:12;100935.75;;;14.55;69.35
77639;BME280;66802;52.574;14.398;2023-08-08T06:19:38;100952.06;;;14.55;69.77
77639;BME280;66802;52.574;14.398;2023-08-08T06:22:03;100948.31;;;14.56;70.56
77639;BME280;66802;52.574;14.398;2023-08-08T06:24:29;100944.09;;;14.54;70.52
77639;BME280;66802;52.574;14.398;2023-08-08T06:26:55;100950.69;;;14.59;70.05
77639;BME280;66802;52.574;14.398;2023-08-08T06:29:21;100959.50;;;14.70;70.01
77639;BME280;66802;52.574;14.398;2023-08-08T06:31:46;100948.94;;;14.75;69.49
77639;BME280;66802;52.574;14.398;2023-08-08T06:34:12;100955.66;;;14.87;69.35
77639;BME280;66802;52.574;14.398;2023-08-08T06:36:38;100954.94;;;14.93;68.67
77639;BME280;66802;52.574;14.398;2023-08-08T06:39:03;100956.41;;;15.04;68.35
77639;BME280;66802;52.574;14.398;2023-08-08T06:41:29;100955.78;;;15.02;69.02
77639;BME280;66802;52.574;14.398;2023-08-08T06:43:55;100965.75;;;15.09;68.67
77639;BME280;66802;52.574;14.398;2023-08-08T06:46:20;100953.31;;;15.15;68.36
77639;BME280;66802;52.574;14.398;2023-08-08T06:48:46;100961.63;;;15.21;68.49
77639;BME280;66802;52.574;14.398;2023-08-08T06:51:13;100963.66;;;15.19;68.15
77639;BME280;66802;52.574;14.398;2023-08-08T06:53:38;100951.03;;;15.26;68.47
77639;BME280;66802;52.574;14.398;2023-08-08T06:56:04;100956.84;;;15.23;67.43
77639;BME280;66802;52.574;14.398;2023-08-08T06:58:29;100959.91;;;15.20;67.83
77639;BME280;66802;52.574;14.398;2023-08-08T07:00:55;100968.59;;;15.16;68.40
77639;BME280;66802;52.574;14.398;2023-08-08T07:03:20;100958.63;;;15.08;68.28
77639;BME280;66802;52.574;14.398;2023-08-08T07:05:46;100958.28;;;15.11;68.29
77639;BME280;66802;52.574;14.398;2023-08-08T07:08:12;100953.97;;;15.17;68.08
77639;BME280;66802;52.574;14.398;2023-08-08T07:10:38;100954.25;;;15.30;68.45
77639;BME280;66802;52.574;14.398;2023-08-08T07:13:04;100953.03;;;15.32;68.16
77639;BME280;66802;52.574;14.398;2023-08-08T07:15:29;100951.16;;;15.33;68.14
77639;BME280;66802;52.574;14.398;2023-08-08T07:17:56;100949.31;;;15.33;67.92
77639;BME280;66802;52.574;14.398;2023-08-08T07:20:21;100953.91;;;15.33;68.16
77639;BME280;66802;52.574;14.398;2023-08-08T07:22:48;100958.47;;;15.32;68.17
77639;BME280;66802;52.574;14.398;2023-08-08T07:25:13;100961.66;;;15.36;68.31
77639;BME280;66802;52.574;14.398;2023-08-08T07:27:39;100963.38;;;15.37;68.52
77639;BME280;66802;52.574;14.398;2023-08-08T07:30:05;100958.59;;;15.39;67.79
77639;BME280;66802;52.574;14.398;2023-08-08T07:32:33;100952.81;;;15.42;68.44
77639;BME280;66802;52.574;14.398;2023-08-08T07:34:58;100951.22;;;15.48;68.25
77639;BME280;66802;52.574;14.398;2023-08-08T07:37:26;100959.00;;;15.59;68.73
77639;BME280;66802;52.574;14.398;2023-08-08T07:39:52;100955.00;;;15.69;66.90
77639;BME280;66802;52.574;14.398;2023-08-08T07:42:17;100959.59;;;15.69;66.80
77639;BME280;66802;52.574;14.398;2023-08-08T07:44:43;100959.13;;;15.65;66.86
77639;BME280;66802;52.574;14.398;2023-08-08T07:47:08;100957.94;;;15.68;67.48
77639;BME280;66802;52.574;14.398;2023-08-08T07:49:34;100968.06;;;15.74;67.98
77639;BME280;66802;52.574;14.398;2023-08-08T07:51:59;100955.22;;;15.68;67.39
77639;BME280;66802;52.574;14.398;2023-08-08T07:54:25;100957.94;;;15.68;67.58
77639;BME280;66802;52.574;14.398;2023-08-08T07:56:50;100955.31;;;15.75;67.44
77639;BME280;66802;52.574;14.398;2023-08-08T07:59:16;100963.41;;;15.83;67.33
77639;BME280;66802;52.574;14.398;2023-08-08T08:01:41;100950.94;;;15.88;65.95
77639;BME280;66802;52.574;14.398;2023-08-08T08:04:07;100948.22;;;15.88;66.86
77639;BME280;66802;52.574;14.398;2023-08-08T08:06:33;100952.66;;;15.89;66.59
77639;BME280;66802;52.574;14.398;2023-08-08T08:08:58;100943.72;;;15.95;66.82
77639;BME280;66802;52.574;14.398;2023-08-08T08:11:24;100944.97;;;16.08;66.12
77639;BME280;66802;52.574;14.398;2023-08-08T08:16:53;100944.81;;;16.38;64.44
77639;BME280;66802;52.574;14.398;2023-08-08T08:19:19;100940.59;;;16.51;64.67
77639;BME280;66802;52.574;14.398;2023-08-08T08:21:45;100937.31;;;16.70;64.31
77639;BME280;66802;52.574;14.398;2023-08-08T08:24:11;100936.97;;;16.73;62.35
77639;BME280;66802;52.574;14.398;2023-08-08T08:26:36;100933.00;;;16.75;62.42
77639;BME280;66802;52.574;14.398;2023-08-08T08:29:02;100941.16;;;16.61;62.17
77639;BME280;66802;52.574;14.398;2023-08-08T08:31:27;100943.13;;;16.52;63.22
77639;BME280;66802;52.574;14.398;2023-08-08T08:33:54;100942.97;;;16.54;63.27
77639;BME280;66802;52.574;14.398;2023-08-08T08:36:20;100942.19;;;16.60;63.34
77639;BME280;66802;52.574;14.398;2023-08-08T08:38:47;100943.22;;;16.59;62.78
77639;BME280;66802;52.574;14.398;2023-08-08T08:41:18;100947.97;;;16.65;63.80
77639;BME280;66802;52.574;14.398;2023-08-08T08:43:44;100937.13;;;16.71;62.29
77639;BME280;66802;52.574;14.398;2023-08-08T08:46:11;100943.50;;;16.78;63.15
77639;BME280;66802;52.574;14.398;2023-08-08T08:48:41;100943.63;;;16.85;62.71
77639;BME280;66802;52.574;14.398;2023-08-08T08:51:07;100935.03;;;17.03;63.54
77639;BME280;66802;52.574;14.398;2023-08-08T08:53:33;100932.06;;;17.19;60.93
77639;BME280;66802;52.574;14.398;2023-08-08T08:56:01;100924.09;;;17.18;60.88
77639;BME280;66802;52.574;14.398;2023-08-08T08:58:28;100929.84;;;17.08;61.43
77639;BME280;66802;52.574;14.398;2023-08-08T09:00:54;100925.06;;;16.95;62.49
77639;BME280;66802;52.574;14.398;2023-08-08T09:03:20;100930.72;;;16.94;62.42
77639;BME280;66802;52.574;14.398;2023-08-08T09:05:47;100932.84;;;16.98;62.13
77639;BME280;66802;52.574;14.398;2023-08-08T09:08:13;100930.94;;;17.13;61.84
77639;BME280;66802;52.574;14.398;2023-08-08T09:10:41;100928.06;;;17.36;61.91
77639;BME280;66802;52.574;14.398;2023-08-08T09:13:06;100933.25;;;17.52;61.44
77639;BME280;66802;52.574;14.398;2023-08-08T09:15:33;100933.22;;;17.67;59.93
77639;BME280;66802;52.574;14.398;2023-08-08T09:18:00;100932.09;;;17.62;59.96
77639;BME280;66802;52.574;14.398;2023-08-08T09:20:27;100935.22;;;17.59;58.84
77639;BME280;66802;52.574;14.398;2023-08-08T09:22:56;100923.38;;;17.51;59.97
77639;BME280;66802;52.574;14.398;2023-08-08T09:25:22;100927.03;;;17.59;59.90
77639;BME280;66802;52.574;14.398;2023-08-08T09:27:50;100925.72;;;17.76;58.89
77639;BME280;66802;52.574;14.398;2023-08-08T09:30:16;100916.81;;;17.88;60.07
77639;BME280;66802;52.574;14.398;2023-08-08T09:32:43;100912.94;;;18.04;59.07
77639;BME280;66802;52.574;14.398;2023-08-08T09:35:10;100922.13;;;17.97;58.71
77639;BME280;66802;52.574;14.398;2023-08-08T09:37:38;100917.69;;;17.96;58.88
77639;BME280;66802;52.574;14.398;2023-08-08T09:40:05;100923.06;;;18.10;58.33
77639;BME280;66802;52.574;14.398;2023-08-08T09:42:33;100926.44;;;18.12;56.60
77639;BME280;66802;52.574;14.398;2023-08-08T09:44:59;100916.31;;;18.06;56.74
77639;BME280;66802;52.574;14.398;2023-08-08T09:47:25;100919.88;;;18.07;57.01
77639;BME280;66802;52.574;14.398;2023-08-08T09:49:59;100927.16;;;17.93;56.42
77639;BME280;66802;52.574;14.398;2023-08-08T09:52:27;100922.16;;;17.75;57.11
77639;BME280;66802;52.574;14.398;2023-08-08T09:54:54;100922.75;;;17.71;58.08
77639;BME280;66802;52.574;14.398;2023-08-08T09:57:22;100911.88;;;17.56;56.71
77639;BME280;66802;52.574;14.398;2023-08-08T09:59:49;100915.59;;;17.48;58.54
77639;BME280;66802;52.574;14.398;2023-08-08T10:02:16;100908.75;;;17.59;58.24
77639;BME280;66802;52.574;14.398;2023-08-08T10:04:45;100905.06;;;18.16;57.98
77639;BME280;66802;52.574;14.398;2023-08-08T10:07:11;100899.72;;;18.77;55.49
77639;BME280;66802;52.574;14.398;2023-08-08T10:09:36;100909.97;;;19.16;53.57
77639;BME280;66802;52.574;14.398;2023-08-08T10:12:06;100904.75;;;19.34;52.93
77639;BME280;66802;52.574;14.398;2023-08-08T10:14:35;100903.25;;;19.18;52.54
77639;BME280;66802;52.574;14.398;2023-08-08T10:17:06;100903.19;;;18.99;52.85
77639;BME280;66802;52.574;14.398;2023-08-08T10:19:32;100910.56;;;18.57;53.42
77639;BME280;66802;52.574;14.398;2023-08-08T10:22:02;100901.53;;;18.29;54.49
77639;BME280;66802;52.574;14.398;2023-08-08T10:24:38;100904.72;;;18.32;55.84
77639;BME280;66802;52.574;14.398;2023-08-08T10:27:04;100908.22;;;18.19;54.28
77639;BME280;66802;52.574;14.398;2023-08-08T10:29:33;100914.56;;;17.99;54.72
77639;BME280;66802;52.574;14.398;2023-08-08T10:32:04;100909.22;;;17.84;55.97
77639;BME280;66802;52.574;14.398;2023-08-08T10:34:43;100911.50;;;17.80;56.87
77639;BME280;66802;52.574;14.398;2023-08-08T10:37:11;100902.38;;;17.95;56.31
77639;BME280;66802;52.574;14.398;2023-08-08T10:39:37;100901.41;;;18.43;57.31
77639;BME280;66802;52.574;14.398;2023-08-08T10:42:18;100889.44;;;18.79;54.08
77639;BME280;66802;52.574;14.398;2023-08-08T10:44:54;100890.09;;;18.81;52.74
77639;BME280;66802;52.574;14.398;2023-08-08T10:47:42;100872.56;;;18.75;53.98
77639;BME280;66802;52.574;14.398;2023-08-08T10:50:13;100882.28;;;18.78;53.16
77639;BME280;66802;52.574;14.398;2023-08-08T10:52:53;100883.19;;;19.05;54.03
77639;BME280;66802;52.574;14.398;2023-08-08T10:55:24;100865.19;;;19.43;53.81
77639;BME280;66802;52.574;14.398;2023-08-08T10:58:12;100864.78;;;19.73;51.79
77639;BME280;66802;52.574;14.398;2023-08-08T11:00:39;100860.13;;;19.80;51.33
77639;BME280;66802;52.574;14.398;2023-08-08T11:03:06;100858.03;;;19.88;49.72
77639;BME280;66802;52.574;14.398;2023-08-08T11:05:34;100862.47;;;19.63;49.58
77639;BME280;66802;52.574;14.398;2023-08-08T11:08:02;100862.63;;;19.28;50.40
77639;BME280;66802;52.574;14.398;2023-08-08T11:10:29;100874.53;;;18.94;51.35
77639;BME280;66802;52.574;14.398;2023-08-08T11:13:03;100879.72;;;18.70;51.33
77639;BME280;66802;52.574;14.398;2023-08-08T11:15:32;100878.97;;;18.54;53.82
77639;BME280;66802;52.574;14.398;2023-08-08T11:17:59;100883.78;;;18.46;54.01
77639;BME280;66802;52.574;14.398;2023-08-08T11:20:29;100907.66;;;18.31;58.85
77639;BME280;66802;52.574;14.398;2023-08-08T11:22:56;100888.41;;;17.83;63.42
77639;BME280;66802;52.574;14.398;2023-08-08T11:25:25;100886.78;;;17.46;67.12
77639;BME280;66802;52.574;14.398;2023-08-08T11:27:52;100889.91;;;17.43;69.10
77639;BME280;66802;52.574;14.398;2023-08-08T11:30:20;100890.09;;;17.41;68.13
77639;BME280;66802;52.574;14.398;2023-08-08T11:32:47;100890.75;;;17.43;68.88
77639;BME280;66802;52.574;14.398;2023-08-08T11:35:17;100884.31;;;17.51;69.89
77639;BME280;66802;52.574;14.398;2023-08-08T11:37:45;100883.41;;;17.65;68.08
77639;BME280;66802;52.574;14.398;2023-08-08T11:40:13;100866.25;;;17.99;65.95
77639;BME280;66802;52.574;14.398;2023-08-08T11:42:40;100855.53;;;18.39;64.17
77639;BME280;66802;52.574;14.398;2023-08-08T11:45:08;100857.84;;;18.76;61.41
77639;BME280;66802;52.574;14.398;2023-08-08T11:47:34;100858.41;;;19.13;56.54
77639;BME280;66802;52.574;14.398;2023-08-08T11:50:05;100856.94;;;19.23;55.46
77639;BME280;66802;52.574;14.398;2023-08-08T11:52:32;100855.81;;;19.05;55.10
77639;BME280;66802;52.574;14.398;2023-08-08T11:55:01;100888.34;;;18.73;57.13
77639;BME280;66802;52.574;14.398;2023-08-08T11:57:27;100892.72;;;17.99;64.81
77639;BME280;66802;52.574;14.398;2023-08-08T11:59:53;100897.25;;;17.42;67.51
77639;BME280;66802;52.574;14.398;2023-08-08T12:02:19;100884.31;;;17.08;70.83
77639;BME280;66802;52.574;14.398;2023-08-08T12:04:45;100884.16;;;16.95;74.75
77639;BME280;66802;52.574;14.398;2023-08-08T12:07:11;100886.63;;;17.11;77.22
77639;BME280;66802;52.574;14.398;2023-08-08T12:09:37;100886.06;;;17.37;73.49
77639;BME280;66802;52.574;14.398;2023-08-08T12:12:03;100883.16;;;17.60;74.53
77639;BME280;66802;52.574;14.398;2023-08-08T12:14:30;100879.19;;;17.84;71.00
77639;BME280;66802;52.574;14.398;2023-08-08T12:16:55;100885.44;;;18.06;70.76
77639;BME280;66802;52.574;14.398;2023-08-08T12:19:25;100880.75;;;18.28;66.45
77639;BME280;66802;52.574;14.398;2023-08-08T12:21:53;100871.94;;;18.39;66.04
77639;BME280;66802;52.574;14.398;2023-08-08T12:24:19;100876.25;;;18.54;65.60
77639;BME280;66802;52.574;14.398;2023-08-08T12:26:44;100870.69;;;18.69;65.92
77639;BME280;66802;52.574;14.398;2023-08-08T12:29:10;100869.66;;;18.83;63.81
77639;BME280;66802;52.574;14.398;2023-08-08T12:31:35;100870.31;;;18.85;65.91
77639;BME280;66802;52.574;14.398;2023-08-08T12:34:01;100873.88;;;18.86;63.86
77639;BME280;66802;52.574;14.398;2023-08-08T12:36:27;100880.34;;;18.72;59.70
77639;BME280;66802;52.574;14.398;2023-08-08T12:38:52;100882.84;;;18.60;57.87
77639;BME280;66802;52.574;14.398;2023-08-08T12:41:18;100885.47;;;18.47;59.16
77639;BME280;66802;52.574;14.398;2023-08-08T12:43:43;100886.03;;;18.36;59.17
77639;BME280;66802;52.574;14.398;2023-08-08T12:46:09;100893.34;;;18.29;59.31
77639;BME280;66802;52.574;14.398;2023-08-08T12:48:34;100901.69;;;18.20;59.95
77639;BME280;66802;52.574;14.398;2023-08-08T12:51:00;100901.91;;;18.19;61.03
77639;BME280;66802;52.574;14.398;2023-08-08T12:53:26;100898.31;;;18.18;60.69
77639;BME280;66802;52.574;14.398;2023-08-08T12:55:52;100891.53;;;18.08;60.40
77639;BME280;66802;52.574;14.398;2023-08-08T12:58:17;100897.75;;;17.95;59.17
77639;BME280;66802;52.574;14.398;2023-08-08T13:00:43;100894.38;;;17.93;59.89
77639;BME280;66802;52.574;14.398;2023-08-08T13:03:08;100896.91;;;17.95;57.54
77639;BME280;66802;52.574;14.398;2023-08-08T13:05:35;100895.72;;;18.04;58.33
77639;BME280;66802;52.574;14.398;2023-08-08T13:08:01;100887.25;;;18.27;57.21
77639;BME280;66802;52.574;14.398;2023-08-08T13:10:26;100885.59;;;18.67;57.46
77639;BME280;66802;52.574;14.398;2023-08-08T13:12:52;100885.91;;;18.98;55.06
77639;BME280;66802;52.574;14.398;2023-08-08T13:15:17;100883.22;;;19.18;56.27
77639;BME280;66802;52.574;14.398;2023-08-08T13:17:43;100880.31;;;19.39;54.24
77639;BME280;66802;52.574;14.398;2023-08-08T13:20:09;100873.63;;;19.48;53.69
77639;BME280;66802;52.574;14.398;2023-08-08T13:22:35;100874.28;;;19.63;52.78
77639;BME280;66802;52.574;14.398;2023-08-08T13:25:00;100875.34;;;19.76;52.72
77639;BME280;66802;52.574;14.398;2023-08-08T13:27:26;100877.84;;;19.84;51.96
77639;BME280;66802;52.574;14.398;2023-08-08T13:29:51;100879.53;;;19.98;52.61
77639;BME280;66802;52.574;14.398;2023-08-08T13:32:17;100879.94;;;20.08;52.15
77639;BME280;66802;52.574;14.398;2023-08-08T13:34:43;100888.38;;;19.93;53.62
77639;BME280;66802;52.574;14.398;2023-08-08T13:37:09;100880.78;;;19.95;53.63
77639;BME280;66802;52.574;14.398;2023-08-08T13:39:34;100887.13;;;20.09;54.38
77639;BME280;66802;52.574;14.398;2023-08-08T13:42:00;100883.28;;;20.17;55.58
77639;BME280;66802;52.574;14.398;2023-08-08T13:44:26;100884.97;;;20.31;53.15
77639;BME280;66802;52.574;14.398;2023-08-08T13:46:51;100894.03;;;20.25;52.76
77639;BME280;66802;52.574;14.398;2023-08-08T13:49:17;100903.13;;;19.92;52.13
77639;BME280;66802;52.574;14.398;2023-08-08T13:51:42;100902.50;;;19.64;51.85
77639;BME280;66802;52.574;14.398;2023-08-08T13:54:08;100900.81;;;19.69;52.77
77639;BME280;66802;52.574;14.398;2023-08-08T13:56:34;100885.00;;;19.91;52.36
77639;BME280;66802;52.574;14.398;2023-08-08T13:59:00;100892.59;;;19.96;51.94
77639;BME280;66802;52.574;14.398;2023-08-08T14:01:25;100891.34;;;19.79;52.53
77639;BME280;66802;52.574;14.398;2023-08-08T14:03:51;100895.97;;;19.72;54.00
77639;BME280;66802;52.574;14.398;2023-08-08T14:06:16;100888.59;;;19.65;54.03
77639;BME280;66802;52.574;14.398;2023-08-08T14:08:42;100889.44;;;19.66;54.99
77639;BME280;66802;52.574;14.398;2023-08-08T14:11:07;100889.63;;;19.58;55.13
77639;BME280;66802;52.574;14.398;2023-08-08T14:13:33;100883.13;;;19.52;54.19
77639;BME280;66802;52.574;14.398;2023-08-08T14:16:00;100882.69;;;19.49;55.02
77639;BME280;66802;52.574;14.398;2023-08-08T14:18:26;100874.69;;;19.54;55.54
77639;BME280;66802;52.574;14.398;2023-08-08T14:20:51;100870.28;;;19.53;55.41
77639;BME280;66802;52.574;14.398;2023-08-08T14:23:17;100874.03;;;19.45;54.23
77639;BME280;66802;52.574;14.398;2023-08-08T14:25:42;100880.38;;;19.52;54.82
77639;BME280;66802;52.574;14.398;2023-08-08T14:28:08;100876.75;;;19.45;53.48
77639;BME280;66802;52.574;14.398;2023-08-08T14:30:33;100886.66;;;19.46;53.34
77639;BME280;66802;52.574;14.398;2023-08-08T14:32:59;100888.34;;;19.34;57.49
77639;BME280;66802;52.574;14.398;2023-08-08T14:35:24;100883.88;;;19.26;58.14
77639;BME280;66802;52.574;14.398;2023-08-08T14:37:50;100881.75;;;19.02;59.33
77639;BME280;66802;52.574;14.398;2023-08-08T14:40:16;100877.25;;;18.88;60.23
77639;BME280;66802;52.574;14.398;2023-08-08T14:42:41;100879.97;;;18.81;60.88
77639;BME280;66802;52.574;14.398;2023-08-08T14:45:07;100897.84;;;18.77;60.60
77639;BME280;66802;52.574;14.398;2023-08-08T14:47:33;100911.44;;;18.64;60.33
77639;BME280;66802;52.574;14.398;2023-08-08T14:49:58;100968.75;;;18.51;62.23
77639;BME280;66802;52.574;14.398;2023-08-08T14:52:24;101007.34;;;17.49;64.71
77639;BME280;66802;52.574;14.398;2023-08-08T14:54:51;100978.13;;;16.63;64.39
77639;BME280;66802;52.574;14.398;2023-08-08T14:57:16;100984.53;;;16.18;69.08
77639;BME280;66802;52.574;14.398;2023-08-08T14:59:42;100964.25;;;15.83;71.65
77639;BME280;66802;52.574;14.398;2023-08-08T15:02:07;100944.91;;;15.78;73.56
77639;BME280;66802;52.574;14.398;2023-08-08T15:04:33;100941.53;;;15.91;76.82
77639;BME280;66802;52.574;14.398;2023-08-08T15:06:59;100938.00;;;16.05;78.31
77639;BME280;66802;52.574;14.398;2023-08-08T15:09:24;100938.50;;;16.23;77.93
77639;BME280;66802;52.574;14.398;2023-08-08T15:11:50;100938.81;;;16.43;77.51
77639;BME280;66802;52.574;14.398;2023-08-08T15:14:16;100936.66;;;16.68;77.56
77639;BME280;66802;52.574;14.398;2023-08-08T15:16:41;100936.19;;;16.79;75.59
77639;BME280;66802;52.574;14.398;2023-08-08T15:19:08;100942.47;;;16.94;77.51
77639;BME280;66802;52.574;14.398;2023-08-08T15:21:33;100936.69;;;17.19;78.99
77639;BME280;66802;52.574;14.398;2023-08-08T15:23:59;100943.84;;;17.41;76.16
77639;BME280;66802;52.574;14.398;2023-08-08T15:26:25;100938.94;;;17.51;77.29
77639;BME280;66802;52.574;14.398;2023-08-08T15:28:50;100950.38;;;17.61;75.26
77639;BME280;66802;52.574;14.398;2023-08-08T15:31:16;100950.81;;;17.65;73.63
77639;BME280;66802;52.574;14.398;2023-08-08T15:33:42;100956.84;;;17.60;73.00
77639;BME280;66802;52.574;14.398;2023-08-08T15:36:08;100954.97;;;17.61;73.78
77639;BME280;66802;52.574;14.398;2023-08-08T15:38:33;100961.28;;;17.61;72.51
77639;BME280;66802;52.574;14.398;2023-08-08T15:40:59;100960.44;;;17.61;72.67